Time;durP1;ratioP1;P1;durP2;ratioP2;P2;SDS_P1;SDS_P2;PMS_P1;PMS_P2;Temp;Humidity;BMP_temperature;BMP_pressure;BME280_temperature;BME280_humidity;BME280_pressure;Samples;Min_cycle;Max_cycle;Signal;HPM_P1;HPM_P2
2023/12/26 00:01:16;;;;;;;1.60;1.52;;;;;;;9.41;66.61;99687.06;4459036;32;32154;-80
2023/12/26 00:03:44;;;;;;;1.27;1.27;;;;;;;9.35;67.04;99697.84;4449174;32;32885;-80
2023/12/26 00:06:11;;;;;;;2.95;2.00;;;;;;;9.52;66.41;99688.37;4458244;32;33889;-80
2023/12/26 00:08:39;;;;;;;2.42;1.95;;;;;;;9.24;67.17;99690.34;4448329;32;33154;-80
2023/12/26 00:11:07;;;;;;;4.43;2.53;;;;;;;9.44;66.22;99696.59;4437101;32;33421;-80
2023/12/26 00:13:35;;;;;;;14.25;4.25;;;;;;;9.44;66.41;99697.44;4448309;32;34139;-80
2023/12/26 00:16:03;;;;;;;2.72;2.55;;;;;;;9.35;66.97;99703.13;4447318;32;32580;-80
2023/12/26 00:18:31;;;;;;;2.20;2.08;;;;;;;9.35;67.00;99691.69;4474238;32;33123;-80
2023/12/26 00:20:59;;;;;;;1.62;1.52;;;;;;;9.56;66.09;99689.97;4449375;32;33316;-80
2023/12/26 00:23:27;;;;;;;2.78;2.25;;;;;;;9.34;67.46;99693.47;4448542;32;33412;-80
2023/12/26 00:25:55;;;;;;;3.25;2.30;;;;;;;9.53;66.99;99700.62;4459262;32;32400;-79
2023/12/26 00:28:22;;;;;;;1.87;1.58;;;;;;;9.53;67.10;99705.91;4450867;32;32718;-79
2023/12/26 00:30:50;;;;;;;7.82;2.80;;;;;;;9.66;66.33;99707.12;4457370;32;32665;-80
2023/12/26 00:33:18;;;;;;;4.70;3.15;;;;;;;9.83;65.92;99703.81;4446183;32;32583;-80
2023/12/26 00:35:46;;;;;;;6.85;2.50;;;;;;;9.86;65.22;99698.38;4471763;32;33422;-80
2023/12/26 00:38:14;;;;;;;1.62;1.52;;;;;;;9.87;65.46;99695.66;4446832;32;32099;-79
2023/12/26 00:40:42;;;;;;;3.30;2.00;;;;;;;9.69;65.88;99697.31;4458406;32;34658;-79
2023/12/26 00:43:11;;;;;;;6.68;0.70;;;;;;;9.56;66.51;99696.09;4458478;32;34236;-79
2023/12/26 00:45:39;;;;;;;2.05;1.42;;;;;;;9.62;66.18;99690.56;4445822;32;32614;-80
2023/12/26 00:48:07;;;;;;;3.20;1.27;;;;;;;9.60;66.46;99702.13;4447165;32;34030;-80
2023/12/26 00:50:41;;;;;;;2.83;2.55;;;;;;;9.60;66.64;99697.69;4459226;32;34178;-80
2023/12/26 00:53:10;;;;;;;1.35;1.35;;;;;;;9.62;66.76;99700.25;4446858;32;34977;-80
2023/12/26 00:55:37;;;;;;;4.00;1.92;;;;;;;9.73;66.31;99704.19;4457002;32;35110;-80
2023/12/26 00:58:05;;;;;;;1.45;1.35;;;;;;;9.74;66.42;99699.75;4449063;32;33818;-80
2023/12/26 01:00:33;;;;;;;2.97;2.50;;;;;;;9.74;65.77;99705.03;4460400;32;35125;-80
2023/12/26 01:03:01;;;;;;;1.98;1.87;;;;;;;9.61;66.54;99698.56;4459369;32;33904;-79
2023/12/26 01:05:29;;;;;;;1.98;1.87;;;;;;;9.47;67.05;99693.84;4445000;32;33152;-79
2023/12/26 01:07:57;;;;;;;6.50;2.30;;;;;;;9.60;66.50;99695.06;4458013;32;33543;-80
2023/12/26 01:10:25;;;;;;;1.30;1.30;;;;;;;9.57;66.86;99665.31;4458697;32;33592;-80
2023/12/26 01:12:52;;;;;;;2.25;2.05;;;;;;;9.46;66.28;99674.53;4444894;32;33017;-79
2023/12/26 01:15:21;;;;;;;1.42;1.40;;;;;;;9.14;68.26;99688.16;4457967;32;32963;-79
2023/12/26 01:17:49;;;;;;;0.75;0.75;;;;;;;9.40;67.77;99697.63;4447712;32;32690;-79
2023/12/26 01:20:17;;;;;;;1.87;1.50;;;;;;;9.47;66.91;99699.97;4447970;32;33975;-79
2023/12/26 01:22:44;;;;;;;3.60;1.95;;;;;;;9.43;67.45;99698.38;4453019;32;33451;-79
2023/12/26 01:25:12;;;;;;;0.73;0.73;;;;;;;9.72;65.44;99681.34;4467234;32;33448;-80
2023/12/26 01:27:40;;;;;;;1.65;1.55;;;;;;;9.55;66.16;99693.53;4460738;32;33334;-79
2023/12/26 01:30:08;;;;;;;5.32;1.05;;;;;;;9.51;66.08;99691.94;4460771;32;33893;-79
2023/12/26 01:32:35;;;;;;;0.62;0.57;;;;;;;9.60;64.98;99688.94;4461031;32;32868;-79
2023/12/26 01:35:04;;;;;;;1.25;1.15;;;;;;;10.01;63.85;99681.87;4446520;32;32920;-80
2023/12/26 01:37:32;;;;;;;3.17;1.65;;;;;;;9.51;64.54;99697.22;4451528;32;33504;-80
2023/12/26 01:39:59;;;;;;;2.05;1.67;;;;;;;9.71;64.92;99698.09;4459989;32;33627;-80
2023/12/26 01:42:27;;;;;;;1.85;1.75;;;;;;;9.46;65.18;99700.91;4459739;32;33637;-80
2023/12/26 01:44:55;;;;;;;6.62;2.22;;;;;;;9.18;65.99;99689.75;4447230;32;33477;-79
2023/12/26 01:47:23;;;;;;;0.95;0.93;;;;;;;9.09;65.63;99695.38;4447935;32;33772;-79
2023/12/26 01:49:51;;;;;;;2.60;2.40;;;;;;;8.93;66.55;99695.13;4452876;32;33183;-79
2023/12/26 01:52:20;;;;;;;5.60;1.10;;;;;;;8.69;67.85;99713.56;4464752;32;33524;-79
2023/12/26 01:54:47;;;;;;;3.83;1.50;;;;;;;9.02;66.28;99718.47;4440247;32;32725;-79
2023/12/26 01:57:15;;;;;;;1.55;1.45;;;;;;;9.03;65.85;99703.53;4435629;32;32217;-79
2023/12/26 01:59:44;;;;;;;0.52;0.52;;;;;;;8.90;66.36;99697.88;4460745;32;33909;-79
2023/12/26 02:02:14;;;;;;;1.50;1.40;;;;;;;8.78;66.19;99691.28;4450322;32;33368;-79
2023/12/26 02:04:41;;;;;;;4.07;2.37;;;;;;;8.53;66.37;99701.88;4464581;32;33791;-80
2023/12/26 02:07:09;;;;;;;1.23;1.12;;;;;;;8.68;66.54;99692.56;4445067;32;34304;-81
2023/12/26 02:09:37;;;;;;;0.35;0.20;;;;;;;8.98;65.77;99686.13;4435666;32;33124;-81
2023/12/26 02:12:06;;;;;;;0.37;0.37;;;;;;;8.90;65.21;99685.56;4449067;32;34013;-81
2023/12/26 02:14:34;;;;;;;3.30;2.08;;;;;;;8.85;65.54;99684.88;4454337;32;33301;-81
2023/12/26 02:17:03;;;;;;;2.08;1.37;;;;;;;8.85;65.45;99684.88;4449520;32;34140;-81
2023/12/26 02:19:30;;;;;;;1.33;0.88;;;;;;;8.80;65.28;99678.94;4446944;32;34079;-80
2023/12/26 02:21:59;;;;;;;0.47;0.47;;;;;;;8.70;65.34;99682.84;4460113;32;33677;-80
2023/12/26 02:24:27;;;;;;;1.52;1.15;;;;;;;8.43;66.18;99676.81;4448614;32;32196;-80
2023/12/26 02:26:55;;;;;;;0.13;0.13;;;;;;;8.41;66.24;99681.28;4452374;32;32534;-80
2023/12/26 02:29:24;;;;;;;1.75;1.65;;;;;;;8.54;65.62;99666.75;4463340;32;33927;-80
2023/12/26 02:31:54;;;;;;;0.20;0.20;;;;;;;8.37;66.15;99672.66;4446363;32;33149;-80
2023/12/26 02:34:22;;;;;;;1.05;1.00;;;;;;;8.73;64.63;99669.53;4437691;32;32340;-80
2023/12/26 02:36:50;;;;;;;0.77;0.77;;;;;;;8.43;64.40;99674.19;4432507;32;31885;-80
2023/12/26 02:39:20;;;;;;;1.65;1.55;;;;;;;8.24;65.44;99679.22;4461660;32;33191;-80
2023/12/26 02:41:47;;;;;;;1.70;0.68;;;;;;;8.11;65.34;99684.06;4434926;32;32931;-80
2023/12/26 02:44:15;;;;;;;0.55;0.30;;;;;;;8.15;65.87;99674.31;4435111;32;33337;-80
2023/12/26 02:46:43;;;;;;;0.47;0.47;;;;;;;8.19;65.69;99673.28;4451720;32;33611;-80
2023/12/26 02:49:10;;;;;;;0.98;0.98;;;;;;;8.19;65.44;99670.66;4452935;32;34944;-80
2023/12/26 02:51:38;;;;;;;3.92;2.30;;;;;;;8.08;66.07;99675.44;4447919;32;32378;-80
2023/12/26 02:54:06;;;;;;;1.65;0.80;;;;;;;8.00;66.92;99667.81;4462235;32;33460;-80
2023/12/26 02:56:34;;;;;;;0.75;0.70;;;;;;;8.01;66.63;99677.41;4446532;32;33630;-80
2023/12/26 02:59:02;;;;;;;2.97;2.45;;;;;;;8.61;64.71;99677.91;4438447;32;33855;-80
2023/12/26 03:01:29;;;;;;;0.30;0.30;;;;;;;8.64;64.40;99672.53;4448504;32;33016;-80
2023/12/26 03:03:57;;;;;;;1.08;0.98;;;;;;;8.71;63.90;99676.66;4459225;32;33573;-79
2023/12/26 03:06:25;;;;;;;0.68;0.68;;;;;;;8.34;64.93;99671.88;4447172;32;34345;-80
2023/12/26 03:08:53;;;;;;;0.77;0.77;;;;;;;8.03;65.21;99669.50;4460931;32;33261;-80
2023/12/26 03:11:20;;;;;;;0.57;0.57;;;;;;;8.02;66.67;99675.63;4444688;32;33147;-80
2023/12/26 03:13:48;;;;;;;0.28;0.28;;;;;;;8.36;65.48;99668.31;4438909;32;35107;-79
2023/12/26 03:16:16;;;;;;;0.60;0.60;;;;;;;8.06;66.58;99669.38;4439191;32;33882;-81
2023/12/26 03:18:43;;;;;;;1.70;0.88;;;;;;;8.10;66.24;99665.72;4437422;32;32590;-79
2023/12/26 03:21:11;;;;;;;2.33;2.08;;;;;;;8.13;65.52;99663.84;4458307;32;34482;-79
2023/12/26 03:23:39;;;;;;;1.12;1.02;;;;;;;8.07;66.38;99660.56;4449633;32;33308;-80
2023/12/26 03:26:08;;;;;;;2.00;1.85;;;;;;;7.98;67.26;99663.53;4448143;32;33036;-79
2023/12/26 03:28:35;;;;;;;1.50;1.45;;;;;;;8.00;67.25;99659.06;4459958;32;33182;-81
2023/12/26 03:31:04;;;;;;;1.10;1.08;;;;;;;7.98;67.21;99655.66;4447843;32;32896;-81
2023/12/26 03:33:35;;;;;;;5.85;1.85;;;;;;;8.04;67.03;99650.16;4460644;32;33383;-81
2023/12/26 03:36:04;;;;;;;0.30;0.30;;;;;;;8.04;66.96;99652.78;4432770;32;32793;-80
2023/12/26 03:38:31;;;;;;;0.90;0.90;;;;;;;7.97;67.30;99646.88;4460594;32;34085;-81
2023/12/26 03:40:59;;;;;;;0.60;0.60;;;;;;;7.92;66.23;99649.66;4445964;32;32654;-81
2023/12/26 03:43:27;;;;;;;0.70;0.70;;;;;;;8.05;67.01;99646.62;4433905;32;33439;-81
2023/12/26 03:45:54;;;;;;;2.60;1.25;;;;;;;8.11;67.13;99641.13;4453443;32;33977;-81
2023/12/26 03:48:22;;;;;;;0.37;0.37;;;;;;;8.14;66.56;99634.00;4447775;32;32747;-81
2023/12/26 03:50:51;;;;;;;1.25;1.15;;;;;;;8.25;66.58;99622.22;4447439;32;33181;-81
2023/12/26 03:53:19;;;;;;;0.68;0.68;;;;;;;8.22;66.20;99625.84;4460138;32;32034;-80
2023/12/26 03:55:46;;;;;;;1.05;1.05;;;;;;;8.28;65.85;99616.84;4450699;32;34760;-81
2023/12/26 03:58:14;;;;;;;0.88;0.75;;;;;;;8.28;65.97;99616.84;4460025;32;33874;-80
2023/12/26 04:00:42;;;;;;;1.40;1.20;;;;;;;8.28;66.29;99617.72;4459804;32;33956;-80
2023/12/26 04:03:10;;;;;;;0.28;0.28;;;;;;;8.36;65.83;99607.81;4460790;32;33422;-80
2023/12/26 04:05:38;;;;;;;2.53;1.40;;;;;;;8.05;66.32;99620.31;4434568;32;32484;-80
2023/12/26 04:08:06;;;;;;;1.20;1.10;;;;;;;8.13;65.43;99618.28;4433966;32;33553;-81
2023/12/26 04:10:34;;;;;;;0.10;0.10;;;;;;;8.13;65.53;99623.53;4449786;32;34939;-80
2023/12/26 04:13:02;;;;;;;3.10;0.95;;;;;;;8.19;64.81;99613.66;4452873;32;32294;-80
2023/12/26 04:15:30;;;;;;;0.45;0.45;;;;;;;8.20;65.05;99622.38;4458673;32;33906;-79
2023/12/26 04:17:59;;;;;;;0.47;0.47;;;;;;;8.18;64.99;99617.19;4449840;32;32674;-80
2023/12/26 04:20:27;;;;;;;0.45;0.45;;;;;;;8.00;65.81;99609.12;4445802;32;32309;-80
2023/12/26 04:22:54;;;;;;;0.73;0.37;;;;;;;7.72;66.40;99617.12;4461741;32;33455;-79
2023/12/26 04:25:23;;;;;;;3.30;0.70;;;;;;;7.74;66.18;99610.91;4459476;32;34192;-79
2023/12/26 04:27:50;;;;;;;0.13;0.13;;;;;;;8.09;64.10;99616.69;4453172;32;34751;-79
2023/12/26 04:30:18;;;;;;;0.35;0.35;;;;;;;7.83;65.22;99626.38;4457900;32;34601;-79
2023/12/26 04:32:46;;;;;;;2.37;1.83;;;;;;;8.11;63.69;99627.97;4448002;32;32198;-79
2023/12/26 04:35:14;;;;;;;0.05;0.05;;;;;;;7.70;64.83;99638.22;4438259;32;32960;-79
2023/12/26 04:37:42;;;;;;;0.45;0.45;;;;;;;7.17;68.02;99640.88;4456414;32;35227;-79
2023/12/26 04:40:10;;;;;;;0.10;0.10;;;;;;;7.02;70.40;99636.09;4444192;32;33015;-79
2023/12/26 04:42:38;;;;;;;0.70;0.70;;;;;;;7.37;70.54;99627.06;4449563;32;33369;-79
2023/12/26 04:45:06;;;;;;;0.60;0.60;;;;;;;7.70;72.00;99620.66;4458646;32;32402;-79
2023/12/26 04:47:34;;;;;;;2.15;1.55;;;;;;;8.09;71.49;99632.44;4434701;32;32696;-79
2023/12/26 04:50:02;;;;;;;0.25;0.25;;;;;;;8.20;70.44;99635.53;4433391;32;32627;-79
2023/12/26 04:52:30;;;;;;;0.40;0.40;;;;;;;8.58;67.25;99626.25;4449729;32;34181;-80
2023/12/26 04:54:58;;;;;;;1.25;0.37;;;;;;;8.07;68.34;99650.03;4449396;32;33294;-80
2023/12/26 04:57:27;;;;;;;0.10;0.10;;;;;;;8.32;67.79;99644.78;4455575;32;33905;-80
2023/12/26 04:59:55;;;;;;;1.75;1.08;;;;;;;8.35;66.68;99656.00;4454185;32;33703;-80
2023/12/26 05:02:23;;;;;;;1.55;1.42;;;;;;;8.25;66.88;99652.00;4463550;32;33868;-81
2023/12/26 05:04:50;;;;;;;0.10;0.10;;;;;;;8.74;63.50;99641.47;4461472;32;33790;-80
2023/12/26 05:07:18;;;;;;;0.55;0.55;;;;;;;8.06;64.80;99653.59;4436386;32;32675;-80
2023/12/26 05:09:46;;;;;;;0.52;0.52;;;;;;;7.79;65.91;99653.66;4439281;32;32966;-80
2023/12/26 05:12:14;;;;;;;0.65;0.60;;;;;;;7.60;66.63;99661.31;4450797;32;31947;-80
2023/12/26 05:14:41;;;;;;;1.00;0.50;;;;;;;7.72;66.22;99660.03;4448475;32;33409;-80
2023/12/26 05:17:12;;;;;;;0.82;0.80;;;;;;;7.63;66.52;99670.84;4440407;32;32665;-79
2023/12/26 05:19:40;;;;;;;0.30;0.30;;;;;;;7.89;65.45;99662.09;4448753;32;33325;-80
2023/12/26 05:22:08;;;;;;;1.52;1.45;;;;;;;7.56;65.38;99664.97;4460958;32;33049;-80
2023/12/26 05:24:36;;;;;;;0.45;0.40;;;;;;;7.65;65.16;99653.28;4437139;32;33034;-79
2023/12/26 05:27:18;;;;;;;0.00;0.00;;;;;;;7.75;63.99;99657.31;4460640;32;32562;-79
2023/12/26 05:29:46;;;;;;;0.70;0.70;;;;;;;7.20;64.64;99646.00;4434022;32;33271;-80
2023/12/26 05:32:14;;;;;;;0.20;0.20;;;;;;;7.22;65.19;99653.84;4446523;32;32858;-80
2023/12/26 05:34:44;;;;;;;0.52;0.52;;;;;;;7.42;64.75;99654.91;4465600;32;33378;-80
2023/12/26 05:37:11;;;;;;;1.58;1.48;;;;;;;7.18;65.01;99653.09;4462726;32;33620;-80
2023/12/26 05:39:43;;;;;;;0.57;0.57;;;;;;;7.06;64.70;99656.09;4447323;32;32711;-80
2023/12/26 05:42:10;;;;;;;1.37;1.27;;;;;;;7.07;64.74;99650.78;4448434;32;33071;-81
2023/12/26 05:44:39;;;;;;;2.30;1.95;;;;;;;6.88;65.64;99650.53;4451633;32;33612;-81
2023/12/26 05:47:06;;;;;;;1.37;1.27;;;;;;;6.87;66.60;99653.19;4446843;32;32996;-81
2023/12/26 05:49:35;;;;;;;1.50;1.35;;;;;;;7.24;64.40;99647.62;4460286;32;34240;-80
2023/12/26 05:52:03;;;;;;;0.98;0.98;;;;;;;6.91;65.30;99658.28;4462168;32;32306;-80
2023/12/26 05:54:31;;;;;;;0.85;0.85;;;;;;;6.79;65.76;99650.81;4445806;32;33658;-81
2023/12/26 05:56:59;;;;;;;0.62;0.62;;;;;;;7.29;63.47;99648.34;4436809;32;33139;-80
2023/12/26 05:59:27;;;;;;;0.47;0.47;;;;;;;6.70;64.91;99643.22;4462060;32;33463;-80
2023/12/26 06:01:54;;;;;;;1.10;1.10;;;;;;;6.49;65.18;99620.22;4446453;32;32484;-80
2023/12/26 06:04:22;;;;;;;0.50;0.50;;;;;;;6.38;66.23;99637.16;4446907;32;33624;-80
2023/12/26 06:06:50;;;;;;;1.17;1.17;;;;;;;6.90;64.74;99646.06;4437041;32;33829;-80
2023/12/26 06:09:18;;;;;;;0.80;0.80;;;;;;;6.60;63.89;99647.03;4449817;32;33856;-80
2023/12/26 06:11:46;;;;;;;0.10;0.10;;;;;;;6.24;65.97;99647.19;4462044;32;33705;-79
2023/12/26 06:14:14;;;;;;;1.65;1.27;;;;;;;6.31;66.22;99659.19;4448336;32;32772;-79
2023/12/26 06:16:42;;;;;;;0.80;0.80;;;;;;;6.36;66.13;99662.56;4448229;32;32899;-79
2023/12/26 06:19:10;;;;;;;1.30;1.23;;;;;;;6.48;66.04;99656.09;4463660;32;33587;-79
2023/12/26 06:21:38;;;;;;;2.22;2.10;;;;;;;6.41;66.18;99652.81;4461160;32;32331;-79
2023/12/26 06:24:08;;;;;;;2.40;2.30;;;;;;;6.49;65.48;99657.81;4433832;32;33818;-79
2023/12/26 06:26:36;;;;;;;0.37;0.37;;;;;;;6.64;65.35;99652.09;4462568;32;33679;-79
2023/12/26 06:29:04;;;;;;;1.23;1.20;;;;;;;6.93;64.13;99650.34;4459153;32;33960;-79
2023/12/26 06:31:32;;;;;;;3.00;1.52;;;;;;;6.97;63.53;99643.25;4441228;32;32702;-79
2023/12/26 06:34:00;;;;;;;0.37;0.37;;;;;;;6.53;64.83;99651.56;4461599;32;33906;-79
2023/12/26 06:36:30;;;;;;;0.60;0.60;;;;;;;6.45;65.22;99656.19;4437887;32;32595;-79
2023/12/26 06:39:00;;;;;;;0.55;0.55;;;;;;;6.54;64.14;99660.31;4448409;32;32585;-79
2023/12/26 06:41:29;;;;;;;0.88;0.88;;;;;;;6.45;64.44;99668.44;4459145;32;32074;-79
2023/12/26 06:43:57;;;;;;;0.10;0.10;;;;;;;6.24;64.88;99662.91;4449315;32;32585;-80
2023/12/26 06:46:25;;;;;;;6.57;3.05;;;;;;;6.22;64.96;99653.34;4430760;32;33328;-81
2023/12/26 06:48:53;;;;;;;0.40;0.40;;;;;;;6.17;65.16;99650.84;4448939;32;33473;-81
2023/12/26 06:51:21;;;;;;;0.55;0.55;;;;;;;6.19;65.31;99659.56;4450156;32;33640;-82
2023/12/26 06:53:49;;;;;;;0.85;0.85;;;;;;;6.23;65.03;99666.44;4448320;32;32456;-81
2023/12/26 06:56:17;;;;;;;0.70;0.70;;;;;;;6.22;65.42;99669.97;4425861;32;33096;-80
2023/12/26 06:58:45;;;;;;;1.27;1.17;;;;;;;6.32;65.06;99678.44;4441273;32;32933;-80
2023/12/26 07:01:13;;;;;;;1.23;1.12;;;;;;;6.38;64.43;99671.25;4468751;32;33317;-80
2023/12/26 07:03:42;;;;;;;0.73;0.70;;;;;;;6.26;64.60;99676.81;4466411;32;34142;-80
2023/12/26 07:06:10;;;;;;;0.62;0.62;;;;;;;6.58;63.54;99693.41;4446237;32;33666;-80
2023/12/26 07:08:38;;;;;;;1.62;1.35;;;;;;;6.73;62.42;99697.34;4448394;32;32795;-81
2023/12/26 07:11:06;;;;;;;5.35;0.95;;;;;;;6.37;62.83;99694.91;4463568;32;33655;-81
2023/12/26 07:13:34;;;;;;;0.47;0.47;;;;;;;6.02;65.13;99693.22;4435202;32;32277;-81
2023/12/26 07:16:01;;;;;;;2.50;2.30;;;;;;;5.95;65.36;99699.56;4457400;32;33241;-81
2023/12/26 07:18:29;;;;;;;2.50;2.30;;;;;;;5.94;64.30;99705.69;4450780;32;33505;-81
2023/12/26 07:20:58;;;;;;;1.27;0.85;;;;;;;5.90;65.63;99712.75;4443737;32;33970;-81
2023/12/26 07:23:25;;;;;;;0.15;0.10;;;;;;;6.08;65.46;99724.53;4449804;32;33539;-80
2023/12/26 07:25:53;;;;;;;1.12;1.12;;;;;;;6.06;65.45;99726.31;4436650;32;33181;-80
2023/12/26 07:28:20;;;;;;;1.62;1.55;;;;;;;6.09;65.52;99726.25;4447045;32;33751;-80
2023/12/26 07:30:51;;;;;;;2.42;2.22;;;;;;;6.12;65.53;99726.16;4444729;32;33279;-80
2023/12/26 07:33:18;;;;;;;1.73;1.55;;;;;;;6.26;65.26;99724.03;4469682;31;33697;-80
2023/12/26 07:35:46;;;;;;;2.30;2.15;;;;;;;6.23;65.93;99725.88;4435768;32;32570;-80
2023/12/26 07:38:16;;;;;;;2.53;2.33;;;;;;;6.37;65.40;99734.25;4450385;32;34081;-80
2023/12/26 07:40:44;;;;;;;1.02;0.98;;;;;;;6.41;65.44;99728.88;4457080;32;33182;-80
2023/12/26 07:43:17;;;;;;;3.10;1.52;;;;;;;6.18;66.17;99731.25;4462609;32;34720;-80
2023/12/26 07:45:45;;;;;;;2.17;1.67;;;;;;;6.40;66.31;99737.62;4461473;32;31705;-80
2023/12/26 07:48:13;;;;;;;3.65;2.95;;;;;;;6.46;65.63;99738.34;4445469;32;33209;-80
2023/12/26 07:50:41;;;;;;;1.85;1.75;;;;;;;6.24;66.77;99733.69;4450469;32;31463;-80
2023/12/26 07:53:09;;;;;;;1.48;1.37;;;;;;;6.47;66.32;99737.47;4430990;32;34179;-80
2023/12/26 07:55:37;;;;;;;5.70;5.12;;;;;;;6.56;66.51;99731.97;4459269;32;32768;-81
2023/12/26 07:58:05;;;;;;;4.22;3.92;;;;;;;6.53;67.31;99732.91;4457457;32;33591;-81
2023/12/26 08:00:33;;;;;;;5.85;3.20;;;;;;;6.77;67.15;99726.06;4447464;32;33549;-81
2023/12/26 08:03:01;;;;;;;5.90;5.03;;;;;;;7.06;66.25;99729.59;4448160;32;33673;-81
2023/12/26 08:05:29;;;;;;;10.40;6.82;;;;;;;6.95;66.97;99721.19;4446793;32;33050;-80
2023/12/26 08:07:56;;;;;;;8.05;5.40;;;;;;;6.78;68.41;99725.16;4432206;32;32865;-80
2023/12/26 08:10:25;;;;;;;16.58;6.95;;;;;;;6.88;68.92;99718.75;4424648;32;34686;-80
2023/12/26 08:12:57;;;;;;;11.73;5.43;;;;;;;7.23;68.62;99718.59;4463427;32;33188;-82
2023/12/26 08:15:25;;;;;;;5.55;5.12;;;;;;;7.49;67.90;99725.63;4446525;32;34477;-81
2023/12/26 08:17:53;;;;;;;6.65;4.80;;;;;;;7.48;67.90;99726.53;4458767;32;34135;-81
2023/12/26 08:20:22;;;;;;;3.15;2.85;;;;;;;7.71;67.40;99731.91;4459150;32;33481;-81
2023/12/26 08:22:50;;;;;;;4.00;3.10;;;;;;;7.69;68.43;99733.72;4439678;32;34764;-81
2023/12/26 08:25:22;;;;;;;1.75;1.67;;;;;;;7.82;68.45;99729.78;4437151;32;32652;-81
2023/12/26 08:27:50;;;;;;;1.40;1.33;;;;;;;7.82;67.76;99729.78;4460105;32;33064;-81
2023/12/26 08:30:19;;;;;;;0.80;0.77;;;;;;;7.71;69.34;99729.28;4448028;32;31975;-81
2023/12/26 08:32:47;;;;;;;4.03;3.70;;;;;;;7.98;68.91;99729.28;4433209;32;33216;-81
2023/12/26 08:35:15;;;;;;;4.25;3.85;;;;;;;8.62;67.42;99724.38;4451146;32;35334;-81
2023/12/26 08:37:42;;;;;;;3.25;2.65;;;;;;;8.68;67.56;99718.87;4435291;32;32838;-82
2023/12/26 08:40:10;;;;;;;0.30;0.30;;;;;;;8.78;67.76;99709.72;4436978;32;32171;-81
2023/12/26 08:42:38;;;;;;;1.73;0.85;;;;;;;8.69;67.91;99710.94;4450350;32;34046;-81
2023/12/26 08:45:06;;;;;;;0.22;0.22;;;;;;;8.94;68.08;99700.31;4449025;32;32904;-81
2023/12/26 08:47:34;;;;;;;0.55;0.55;;;;;;;8.79;68.46;99697.44;4450582;32;32328;-81
2023/12/26 08:50:05;;;;;;;2.62;1.42;;;;;;;9.02;67.80;99699.16;4469035;32;34111;-82
2023/12/26 08:52:33;;;;;;;3.20;1.02;;;;;;;9.35;68.02;99702.22;4443491;32;32985;-82
2023/12/26 08:55:01;;;;;;;1.58;0.88;;;;;;;9.34;68.19;99706.66;4436396;32;33894;-82
2023/12/26 08:57:29;;;;;;;0.93;0.93;;;;;;;9.43;68.35;99695.75;4447474;32;32800;-82
2023/12/26 08:59:59;;;;;;;5.82;1.52;;;;;;;9.52;68.27;99709.47;4463519;32;32951;-82
2023/12/26 09:02:28;;;;;;;2.53;1.75;;;;;;;9.74;68.31;99711.16;4459560;32;33697;-82
2023/12/26 09:04:56;;;;;;;0.30;0.30;;;;;;;10.07;67.81;99701.91;4464148;32;33546;-82
2023/12/26 09:07:24;;;;;;;1.90;1.73;;;;;;;10.46;67.21;99705.44;4449048;32;34093;-82
2023/12/26 09:09:51;;;;;;;0.90;0.90;;;;;;;10.47;66.61;99709.78;4452525;32;31830;-82
2023/12/26 09:12:19;;;;;;;1.70;1.60;;;;;;;10.75;66.17;99705.91;4461600;32;31747;-82
2023/12/26 09:14:48;;;;;;;1.73;1.25;;;;;;;11.01;64.81;99708.22;4449752;32;33627;-80
2023/12/26 09:17:16;;;;;;;0.37;0.37;;;;;;;11.14;64.84;99694.41;4465332;32;34281;-81
2023/12/26 09:19:44;;;;;;;;;;;;;;;11.34;64.04;99701.38;4438021;32;33544;-80
2023/12/26 09:22:12;;;;;;;2.78;0.73;;;;;;;11.66;62.25;99694.50;4449212;32;31434;-80
2023/12/26 09:24:43;;;;;;;0.00;0.00;;;;;;;11.69;62.65;99699.66;4451795;32;33922;-80
2023/12/26 09:27:10;;;;;;;3.53;1.87;;;;;;;12.13;60.61;99693.91;4437794;32;32374;-80
2023/12/26 09:29:38;;;;;;;0.50;0.50;;;;;;;12.30;60.03;99701.84;4449142;32;32916;-80
2023/12/26 09:32:06;;;;;;;0.50;0.50;;;;;;;12.65;58.38;99709.72;4462520;32;33258;-80
2023/12/26 09:34:34;;;;;;;0.88;0.52;;;;;;;12.32;59.18;99717.66;4465164;32;34773;-81
2023/12/26 09:37:02;;;;;;;0.95;0.95;;;;;;;12.27;58.89;99717.88;4449473;32;33765;-80
2023/12/26 09:39:29;;;;;;;1.23;1.00;;;;;;;12.57;58.20;99726.84;4452878;32;32681;-80
2023/12/26 09:41:58;;;;;;;0.70;0.70;;;;;;;12.66;57.68;99725.50;4463610;32;31758;-81
2023/12/26 09:44:25;;;;;;;0.03;0.03;;;;;;;12.55;57.81;99727.88;4440388;32;32929;-85
2023/12/26 09:46:53;;;;;;;3.20;1.70;;;;;;;12.67;57.35;99736.97;4451741;32;33247;-79
2023/12/26 09:49:21;;;;;;;0.93;0.93;;;;;;;12.66;57.16;99735.25;4437938;32;32320;-79
2023/12/26 09:51:58;;;;;;;1.50;0.73;;;;;;;12.48;57.71;99731.78;4448047;32;32950;-79
2023/12/26 09:54:27;;;;;;;0.50;0.50;;;;;;;12.26;58.53;99732.06;4461967;32;32669;-79
2023/12/26 09:56:55;;;;;;;3.47;2.55;;;;;;;12.42;58.13;99730.31;4451737;32;34011;-79
2023/12/26 09:59:26;;;;;;;0.47;0.47;;;;;;;12.63;57.45;99727.47;4463285;32;33584;-79
2023/12/26 10:01:54;;;;;;;0.15;0.15;;;;;;;12.56;57.60;99719.84;4447712;32;34238;-79
2023/12/26 10:04:24;;;;;;;0.80;0.80;;;;;;;12.13;58.88;99737.13;4464285;32;33376;-79
2023/12/26 10:06:52;;;;;;;1.98;0.77;;;;;;;12.05;59.22;99734.84;4438215;32;33029;-78
2023/12/26 10:09:20;;;;;;;0.32;0.32;;;;;;;12.13;59.16;99736.28;4449635;32;34138;-79
2023/12/26 10:11:52;;;;;;;0.65;0.65;;;;;;;12.05;59.43;99745.44;4458816;32;33648;-78
2023/12/26 10:14:29;;;;;;;1.50;1.35;;;;;;;11.80;60.21;99737.00;4449666;32;32957;-79
2023/12/26 10:16:58;;;;;;;0.43;0.43;;;;;;;11.67;61.03;99735.88;4425732;32;33291;-79
2023/12/26 10:19:26;;;;;;;2.53;1.90;;;;;;;11.69;60.75;99732.25;4462587;32;33063;-79
2023/12/26 10:21:53;;;;;;;1.35;1.30;;;;;;;11.94;59.95;99734.56;4451852;32;33286;-78
2023/12/26 10:24:21;;;;;;;2.30;1.17;;;;;;;12.00;59.32;99726.28;4449093;32;33000;-79
2023/12/26 10:26:49;;;;;;;0.62;0.62;;;;;;;11.89;59.82;99723.34;4464193;32;34050;-79
2023/12/26 10:29:17;;;;;;;0.52;0.52;;;;;;;12.05;59.53;99718.97;4463707;32;34509;-78
2023/12/26 10:31:45;;;;;;;1.10;1.10;;;;;;;11.80;60.58;99699.97;4450603;32;33772;-79
2023/12/26 10:34:17;;;;;;;0.62;0.62;;;;;;;12.22;59.27;99710.19;4435029;32;32962;-78
2023/12/26 10:36:46;;;;;;;;;;;;;;;12.29;58.88;99708.91;4463535;32;32871;-78
2023/12/26 10:39:16;;;;;;;0.37;0.37;;;;;;;12.02;59.71;99711.22;4435913;32;31591;-80
2023/12/26 10:41:48;;;;;;;2.92;1.05;;;;;;;11.74;60.76;99697.63;4451282;32;34170;-80
2023/12/26 10:44:17;;;;;;;0.40;0.40;;;;;;;11.64;61.78;99696.37;4448112;32;33498;-80
2023/12/26 10:46:47;;;;;;;0.28;0.28;;;;;;;11.95;60.64;99714.25;4464281;32;33481;-80
2023/12/26 10:49:26;;;;;;;1.92;1.60;;;;;;;12.27;59.36;99696.72;4453087;32;33260;-80
2023/12/26 10:51:55;;;;;;;2.45;2.15;;;;;;;12.09;60.29;99702.94;4462763;32;32457;-78
2023/12/26 10:54:24;;;;;;;0.10;0.10;;;;;;;12.39;58.99;99696.06;4447976;32;33570;-78
2023/12/26 10:56:52;;;;;;;3.33;2.12;;;;;;;11.96;60.47;99702.72;4448343;32;32804;-78
2023/12/26 13:54:27;;;;;;;1.25;1.15;;;;;;;12.64;59.26;99721.25;4468220;32;34555;-81
2023/12/26 13:57:32;;;;;;;0.57;0.57;;;;;;;12.80;58.35;99727.44;4464373;32;33875;-81
2023/12/26 14:00:38;;;;;;;0.55;0.55;;;;;;;12.94;57.85;99739.94;4464763;32;35195;-81
2023/12/26 14:03:49;;;;;;;4.30;2.25;;;;;;;12.86;57.90;99736.84;4464823;32;32724;-81
2023/12/26 14:06:56;;;;;;;0.15;0.13;;;;;;;12.64;58.55;99737.16;4475656;31;32813;-81
2023/12/26 14:09:24;;;;;;;2.12;1.95;;;;;;;12.79;58.11;99742.47;4466722;32;33326;-81
2023/12/26 14:12:29;;;;;;;0.50;0.50;;;;;;;12.78;58.48;99748.72;4449690;32;32776;-81
2023/12/26 14:15:35;;;;;;;1.30;0.77;;;;;;;12.56;58.89;99743.69;4476009;31;33547;-81
2023/12/26 14:18:41;;;;;;;0.77;0.77;;;;;;;12.85;58.29;99751.03;4461609;32;33581;-81
2023/12/26 14:21:09;;;;;;;3.75;1.37;;;;;;;12.85;58.13;99761.62;4467096;32;32901;-81
2023/12/26 14:24:14;;;;;;;1.08;0.47;;;;;;;12.64;58.26;99766.28;4437689;32;30857;-81
2023/12/26 14:27:20;;;;;;;0.70;0.55;;;;;;;12.78;57.77;99766.41;4461076;32;31836;-81
2023/12/26 14:29:48;;;;;;;1.23;1.05;;;;;;;12.97;56.84;99776.88;4455263;32;33333;-81
2023/12/26 14:32:57;;;;;;;1.90;0.85;;;;;;;12.93;57.05;99775.34;4449683;32;32325;-81
2023/12/26 14:35:28;;;;;;;3.35;1.33;;;;;;;12.91;56.96;99783.34;4454205;32;33119;-81
2023/12/26 14:38:34;;;;;;;2.05;1.33;;;;;;;12.87;56.34;99781.81;4437601;32;32739;-81
2023/12/26 14:41:01;;;;;;;3.28;1.55;;;;;;;12.78;56.18;99792.91;4451514;32;33052;-81
2023/12/26 14:44:08;;;;;;;0.22;0.22;;;;;;;12.59;56.56;99800.97;4434167;32;32162;-80
2023/12/26 14:46:38;;;;;;;0.85;0.82;;;;;;;12.72;56.11;99802.03;4449489;32;34227;-81